sensor_id;sensor_type;location;lat;lon;timestamp;P1;durP1;ratioP1;P2;durP2;ratioP2
27225;SDS011;14732;51.074;3.788;2024-02-14T00:02:10;9.98;;;6.43;;
27225;SDS011;14732;51.074;3.788;2024-02-14T00:04:37;9.88;;;5.93;;
27225;SDS011;14732;51.074;3.788;2024-02-14T00:07:03;7.55;;;6.22;;
27225;SDS011;14732;51.074;3.788;2024-02-14T00:09:29;8.65;;;6.45;;
27225;SDS011;14732;51.074;3.788;2024-02-14T00:11:55;10.00;;;5.95;;
27225;SDS011;14732;51.074;3.788;2024-02-14T00:14:20;10.00;;;5.70;;
27225;SDS011;14732;51.074;3.788;2024-02-14T00:16:46;11.05;;;6.05;;
27225;SDS011;14732;51.074;3.788;2024-02-14T00:19:12;8.25;;;5.95;;
27225;SDS011;14732;51.074;3.788;2024-02-14T00:21:38;8.90;;;5.82;;
27225;SDS011;14732;51.074;3.788;2024-02-14T00:24:04;7.70;;;5.55;;
27225;SDS011;14732;51.074;3.788;2024-02-14T00:26:30;9.15;;;5.68;;
27225;SDS011;14732;51.074;3.788;2024-02-14T00:28:56;9.90;;;5.75;;
27225;SDS011;14732;51.074;3.788;2024-02-14T00:31:22;8.48;;;6.03;;
27225;SDS011;14732;51.074;3.788;2024-02-14T00:33:47;10.68;;;5.78;;
27225;SDS011;14732;51.074;3.788;2024-02-14T00:36:13;11.40;;;5.82;;
27225;SDS011;14732;51.074;3.788;2024-02-14T00:38:39;8.52;;;5.15;;
27225;SDS011;14732;51.074;3.788;2024-02-14T00:41:05;9.95;;;5.72;;
27225;SDS011;14732;51.074;3.788;2024-02-14T00:43:31;8.73;;;5.43;;
27225;SDS011;14732;51.074;3.788;2024-02-14T00:45:56;10.15;;;5.80;;
27225;SDS011;14732;51.074;3.788;2024-02-14T00:48:23;7.55;;;5.53;;
27225;SDS011;14732;51.074;3.788;2024-02-14T00:50:48;9.27;;;5.40;;
27225;SDS011;14732;51.074;3.788;2024-02-14T00:53:14;8.20;;;5.53;;
27225;SDS011;14732;51.074;3.788;2024-02-14T00:55:40;7.43;;;5.45;;
27225;SDS011;14732;51.074;3.788;2024-02-14T00:58:06;9.23;;;5.18;;
27225;SDS011;14732;51.074;3.788;2024-02-14T01:00:32;6.47;;;5.30;;
27225;SDS011;14732;51.074;3.788;2024-02-14T01:02:58;6.90;;;4.63;;
27225;SDS011;14732;51.074;3.788;2024-02-14T01:32:22;7.43;;;5.03;;
27225;SDS011;14732;51.074;3.788;2024-02-14T01:34:51;13.48;;;5.30;;
27225;SDS011;14732;51.074;3.788;2024-02-14T01:37:22;6.93;;;5.13;;
27225;SDS011;14732;51.074;3.788;2024-02-14T01:39:50;7.68;;;5.38;;
27225;SDS011;14732;51.074;3.788;2024-02-14T01:42:17;6.93;;;4.90;;
27225;SDS011;14732;51.074;3.788;2024-02-14T01:44:45;9.23;;;5.10;;
27225;SDS011;14732;51.074;3.788;2024-02-14T01:47:11;7.80;;;5.57;;
27225;SDS011;14732;51.074;3.788;2024-02-14T01:49:40;8.05;;;4.72;;
27225;SDS011;14732;51.074;3.788;2024-02-14T01:52:09;8.95;;;5.35;;
27225;SDS011;14732;51.074;3.788;2024-02-14T01:54:40;7.55;;;5.13;;
27225;SDS011;14732;51.074;3.788;2024-02-14T01:57:09;7.95;;;5.13;;
27225;SDS011;14732;51.074;3.788;2024-02-14T01:59:38;6.68;;;4.82;;
27225;SDS011;14732;51.074;3.788;2024-02-14T02:02:05;8.30;;;4.78;;
27225;SDS011;14732;51.074;3.788;2024-02-14T02:04:36;9.77;;;4.90;;
27225;SDS011;14732;51.074;3.788;2024-02-14T02:07:02;11.23;;;5.00;;
27225;SDS011;14732;51.074;3.788;2024-02-14T02:09:31;8.23;;;4.30;;
27225;SDS011;14732;51.074;3.788;2024-02-14T02:11:58;8.50;;;4.72;;
27225;SDS011;14732;51.074;3.788;2024-02-14T02:14:25;7.07;;;4.25;;
27225;SDS011;14732;51.074;3.788;2024-02-14T02:16:54;6.10;;;4.30;;
27225;SDS011;14732;51.074;3.788;2024-02-14T02:19:23;8.35;;;4.68;;
27225;SDS011;14732;51.074;3.788;2024-02-14T02:21:48;6.53;;;4.70;;
27225;SDS011;14732;51.074;3.788;2024-02-14T02:24:17;8.75;;;4.30;;
27225;SDS011;14732;51.074;3.788;2024-02-14T02:26:48;7.45;;;4.72;;
27225;SDS011;14732;51.074;3.788;2024-02-14T02:29:16;7.18;;;4.80;;
27225;SDS011;14732;51.074;3.788;2024-02-14T02:31:47;8.13;;;5.43;;
27225;SDS011;14732;51.074;3.788;2024-02-14T02:34:15;10.63;;;5.22;;
27225;SDS011;14732;51.074;3.788;2024-02-14T02:36:41;8.82;;;5.70;;
27225;SDS011;14732;51.074;3.788;2024-02-14T02:39:08;8.52;;;5.93;;
27225;SDS011;14732;51.074;3.788;2024-02-14T02:41:34;8.70;;;5.43;;
27225;SDS011;14732;51.074;3.788;2024-02-14T02:44:02;9.40;;;5.57;;
27225;SDS011;14732;51.074;3.788;2024-02-14T02:46:31;8.70;;;5.60;;
27225;SDS011;14732;51.074;3.788;2024-02-14T02:48:59;7.97;;;6.20;;
27225;SDS011;14732;51.074;3.788;2024-02-14T02:51:41;10.50;;;6.05;;
27225;SDS011;14732;51.074;3.788;2024-02-14T02:54:07;8.95;;;5.97;;
27225;SDS011;14732;51.074;3.788;2024-02-14T02:56:36;9.93;;;5.82;;
27225;SDS011;14732;51.074;3.788;2024-02-14T02:59:07;7.53;;;5.90;;
27225;SDS011;14732;51.074;3.788;2024-02-14T03:01:36;9.93;;;5.90;;
27225;SDS011;14732;51.074;3.788;2024-02-14T03:04:02;8.50;;;5.45;;
27225;SDS011;14732;51.074;3.788;2024-02-14T03:06:37;7.00;;;5.22;;
27225;SDS011;14732;51.074;3.788;2024-02-14T03:09:03;6.45;;;5.05;;
27225;SDS011;14732;51.074;3.788;2024-02-14T03:11:34;11.13;;;5.32;;
27225;SDS011;14732;51.074;3.788;2024-02-14T03:14:04;11.30;;;5.47;;
27225;SDS011;14732;51.074;3.788;2024-02-14T03:16:38;17.95;;;5.85;;
27225;SDS011;14732;51.074;3.788;2024-02-14T03:19:04;9.27;;;5.63;;
27225;SDS011;14732;51.074;3.788;2024-02-14T03:21:33;9.40;;;5.68;;
27225;SDS011;14732;51.074;3.788;2024-02-14T03:24:01;5.68;;;5.07;;
27225;SDS011;14732;51.074;3.788;2024-02-14T03:29:03;9.45;;;5.82;;
27225;SDS011;14732;51.074;3.788;2024-02-14T03:31:31;10.15;;;6.53;;
27225;SDS011;14732;51.074;3.788;2024-02-14T03:33:57;9.10;;;5.70;;
27225;SDS011;14732;51.074;3.788;2024-02-14T03:36:28;12.38;;;6.22;;
27225;SDS011;14732;51.074;3.788;2024-02-14T03:38:58;11.18;;;6.25;;
27225;SDS011;14732;51.074;3.788;2024-02-14T03:41:33;8.23;;;5.90;;
27225;SDS011;14732;51.074;3.788;2024-02-14T03:44:04;11.73;;;6.82;;
27225;SDS011;14732;51.074;3.788;2024-02-14T03:46:35;11.63;;;6.07;;
27225;SDS011;14732;51.074;3.788;2024-02-14T03:49:03;13.07;;;6.57;;
27225;SDS011;14732;51.074;3.788;2024-02-14T03:51:37;10.70;;;6.80;;
27225;SDS011;14732;51.074;3.788;2024-02-14T03:54:02;10.68;;;6.53;;
27225;SDS011;14732;51.074;3.788;2024-02-14T03:56:28;14.15;;;7.15;;
27225;SDS011;14732;51.074;3.788;2024-02-14T03:58:58;9.85;;;6.97;;
27225;SDS011;14732;51.074;3.788;2024-02-14T04:01:24;14.32;;;7.47;;
27225;SDS011;14732;51.074;3.788;2024-02-14T04:03:52;9.80;;;7.70;;
27225;SDS011;14732;51.074;3.788;2024-02-14T04:06:24;16.58;;;8.18;;
27225;SDS011;14732;51.074;3.788;2024-02-14T04:08:54;10.13;;;7.15;;
27225;SDS011;14732;51.074;3.788;2024-02-14T04:11:24;12.23;;;7.57;;
27225;SDS011;14732;51.074;3.788;2024-02-14T04:13:57;15.93;;;7.78;;
27225;SDS011;14732;51.074;3.788;2024-02-14T04:16:29;13.95;;;7.43;;
27225;SDS011;14732;51.074;3.788;2024-02-14T04:19:07;14.20;;;7.68;;
27225;SDS011;14732;51.074;3.788;2024-02-14T04:21:38;12.90;;;7.53;;
27225;SDS011;14732;51.074;3.788;2024-02-14T04:24:20;12.32;;;7.38;;
27225;SDS011;14732;51.074;3.788;2024-02-14T04:26:46;9.80;;;7.10;;
27225;SDS011;14732;51.074;3.788;2024-02-14T04:29:15;12.38;;;7.88;;
27225;SDS011;14732;51.074;3.788;2024-02-14T04:31:43;13.45;;;7.53;;
27225;SDS011;14732;51.074;3.788;2024-02-14T04:34:09;14.88;;;7.55;;
27225;SDS011;14732;51.074;3.788;2024-02-14T04:36:40;17.00;;;7.78;;
27225;SDS011;14732;51.074;3.788;2024-02-14T04:39:06;11.52;;;6.57;;
27225;SDS011;14732;51.074;3.788;2024-02-14T04:41:35;14.73;;;7.22;;
27225;SDS011;14732;51.074;3.788;2024-02-14T04:44:03;12.93;;;7.47;;
27225;SDS011;14732;51.074;3.788;2024-02-14T04:46:38;16.38;;;6.85;;
27225;SDS011;14732;51.074;3.788;2024-02-14T04:49:09;11.68;;;6.30;;
27225;SDS011;14732;51.074;3.788;2024-02-14T04:51:39;11.52;;;7.05;;
27225;SDS011;14732;51.074;3.788;2024-02-14T04:54:05;13.07;;;6.80;;
27225;SDS011;14732;51.074;3.788;2024-02-14T04:56:31;15.38;;;6.82;;
27225;SDS011;14732;51.074;3.788;2024-02-14T04:59:00;13.65;;;6.10;;
27225;SDS011;14732;51.074;3.788;2024-02-14T05:01:26;11.57;;;5.88;;
27225;SDS011;14732;51.074;3.788;2024-02-14T05:03:52;12.25;;;6.13;;
27225;SDS011;14732;51.074;3.788;2024-02-14T05:06:18;14.52;;;5.97;;
27225;SDS011;14732;51.074;3.788;2024-02-14T05:08:44;13.50;;;6.25;;
27225;SDS011;14732;51.074;3.788;2024-02-14T05:11:09;15.65;;;5.75;;
27225;SDS011;14732;51.074;3.788;2024-02-14T05:13:35;10.73;;;5.55;;
27225;SDS011;14732;51.074;3.788;2024-02-14T05:16:03;10.02;;;6.05;;
27225;SDS011;14732;51.074;3.788;2024-02-14T05:18:29;9.48;;;5.95;;
27225;SDS011;14732;51.074;3.788;2024-02-14T05:20:55;11.05;;;5.53;;
27225;SDS011;14732;51.074;3.788;2024-02-14T05:23:21;10.20;;;6.07;;
27225;SDS011;14732;51.074;3.788;2024-02-14T05:25:46;12.13;;;5.60;;
27225;SDS011;14732;51.074;3.788;2024-02-14T05:28:13;9.50;;;5.30;;
27225;SDS011;14732;51.074;3.788;2024-02-14T05:30:40;9.82;;;5.55;;
27225;SDS011;14732;51.074;3.788;2024-02-14T05:33:06;10.98;;;5.40;;
27225;SDS011;14732;51.074;3.788;2024-02-14T05:35:31;9.95;;;5.18;;
27225;SDS011;14732;51.074;3.788;2024-02-14T05:37:57;8.43;;;4.88;;
27225;SDS011;14732;51.074;3.788;2024-02-14T05:40:23;7.72;;;4.88;;
27225;SDS011;14732;51.074;3.788;2024-02-14T05:42:49;10.25;;;5.07;;
27225;SDS011;14732;51.074;3.788;2024-02-14T05:45:15;12.00;;;5.20;;
27225;SDS011;14732;51.074;3.788;2024-02-14T05:47:40;8.30;;;5.30;;
27225;SDS011;14732;51.074;3.788;2024-02-14T05:50:07;10.63;;;5.15;;
27225;SDS011;14732;51.074;3.788;2024-02-14T05:52:34;7.72;;;4.45;;
27225;SDS011;14732;51.074;3.788;2024-02-14T05:54:59;11.90;;;5.22;;
27225;SDS011;14732;51.074;3.788;2024-02-14T05:57:25;10.60;;;4.47;;
27225;SDS011;14732;51.074;3.788;2024-02-14T05:59:51;7.90;;;4.70;;
27225;SDS011;14732;51.074;3.788;2024-02-14T06:02:17;8.73;;;4.43;;
27225;SDS011;14732;51.074;3.788;2024-02-14T06:04:43;10.88;;;4.28;;
27225;SDS011;14732;51.074;3.788;2024-02-14T06:07:08;7.35;;;3.85;;
27225;SDS011;14732;51.074;3.788;2024-02-14T06:09:36;9.05;;;4.93;;
27225;SDS011;14732;51.074;3.788;2024-02-14T06:12:02;9.20;;;4.63;;
27225;SDS011;14732;51.074;3.788;2024-02-14T06:14:28;9.60;;;4.43;;
27225;SDS011;14732;51.074;3.788;2024-02-14T06:16:55;9.98;;;4.72;;
27225;SDS011;14732;51.074;3.788;2024-02-14T06:19:22;12.80;;;5.40;;
27225;SDS011;14732;51.074;3.788;2024-02-14T06:21:48;10.88;;;5.25;;
27225;SDS011;14732;51.074;3.788;2024-02-14T06:24:14;11.35;;;4.75;;
27225;SDS011;14732;51.074;3.788;2024-02-14T06:26:40;10.13;;;4.80;;
27225;SDS011;14732;51.074;3.788;2024-02-14T06:29:05;7.38;;;4.72;;
27225;SDS011;14732;51.074;3.788;2024-02-14T06:31:31;10.00;;;4.80;;
27225;SDS011;14732;51.074;3.788;2024-02-14T06:33:56;12.65;;;5.22;;
27225;SDS011;14732;51.074;3.788;2024-02-14T06:36:22;9.30;;;5.13;;
27225;SDS011;14732;51.074;3.788;2024-02-14T06:38:48;10.15;;;4.95;;
27225;SDS011;14732;51.074;3.788;2024-02-14T06:41:15;11.50;;;5.70;;
27225;SDS011;14732;51.074;3.788;2024-02-14T06:43:40;10.75;;;4.90;;
27225;SDS011;14732;51.074;3.788;2024-02-14T06:46:06;8.10;;;4.50;;
27225;SDS011;14732;51.074;3.788;2024-02-14T06:48:32;11.75;;;5.07;;
27225;SDS011;14732;51.074;3.788;2024-02-14T06:50:57;11.50;;;5.00;;
27225;SDS011;14732;51.074;3.788;2024-02-14T06:53:23;9.35;;;4.70;;
27225;SDS011;14732;51.074;3.788;2024-02-14T06:55:49;11.65;;;4.93;;
27225;SDS011;14732;51.074;3.788;2024-02-14T06:58:14;7.57;;;4.75;;
27225;SDS011;14732;51.074;3.788;2024-02-14T07:00:40;12.10;;;5.45;;
27225;SDS011;14732;51.074;3.788;2024-02-14T07:03:05;13.10;;;5.13;;
27225;SDS011;14732;51.074;3.788;2024-02-14T07:05:31;9.77;;;5.22;;
27225;SDS011;14732;51.074;3.788;2024-02-14T07:07:57;7.85;;;4.93;;
27225;SDS011;14732;51.074;3.788;2024-02-14T07:10:22;11.32;;;5.05;;
27225;SDS011;14732;51.074;3.788;2024-02-14T07:12:48;11.00;;;5.32;;
27225;SDS011;14732;51.074;3.788;2024-02-14T07:15:14;9.07;;;5.35;;
27225;SDS011;14732;51.074;3.788;2024-02-14T07:17:40;11.85;;;5.75;;
27225;SDS011;14732;51.074;3.788;2024-02-14T07:20:05;10.82;;;5.90;;
27225;SDS011;14732;51.074;3.788;2024-02-14T07:22:34;14.60;;;6.07;;
27225;SDS011;14732;51.074;3.788;2024-02-14T07:25:00;18.55;;;6.80;;
27225;SDS011;14732;51.074;3.788;2024-02-14T07:27:26;12.23;;;5.90;;
27225;SDS011;14732;51.074;3.788;2024-02-14T07:29:52;14.75;;;6.10;;
27225;SDS011;14732;51.074;3.788;2024-02-14T07:32:17;12.63;;;6.38;;
27225;SDS011;14732;51.074;3.788;2024-02-14T07:34:43;11.80;;;6.10;;
27225;SDS011;14732;51.074;3.788;2024-02-14T07:37:09;10.48;;;6.20;;
27225;SDS011;14732;51.074;3.788;2024-02-14T07:39:34;10.70;;;5.80;;
27225;SDS011;14732;51.074;3.788;2024-02-14T07:42:00;17.40;;;6.80;;
27225;SDS011;14732;51.074;3.788;2024-02-14T07:44:29;13.70;;;6.28;;
27225;SDS011;14732;51.074;3.788;2024-02-14T07:46:55;14.35;;;5.40;;
27225;SDS011;14732;51.074;3.788;2024-02-14T07:49:21;9.25;;;5.28;;
27225;SDS011;14732;51.074;3.788;2024-02-14T07:51:47;12.70;;;5.45;;
27225;SDS011;14732;51.074;3.788;2024-02-14T07:54:13;14.75;;;6.00;;
27225;SDS011;14732;51.074;3.788;2024-02-14T07:56:40;12.00;;;6.10;;
27225;SDS011;14732;51.074;3.788;2024-02-14T07:59:05;12.30;;;5.90;;
27225;SDS011;14732;51.074;3.788;2024-02-14T08:01:31;14.02;;;5.65;;
27225;SDS011;14732;51.074;3.788;2024-02-14T08:03:59;10.95;;;6.25;;
27225;SDS011;14732;51.074;3.788;2024-02-14T08:06:25;11.85;;;6.65;;
27225;SDS011;14732;51.074;3.788;2024-02-14T08:08:51;15.10;;;6.65;;
27225;SDS011;14732;51.074;3.788;2024-02-14T08:11:22;13.27;;;7.05;;
27225;SDS011;14732;51.074;3.788;2024-02-14T08:13:47;13.65;;;7.00;;
27225;SDS011;14732;51.074;3.788;2024-02-14T08:16:13;13.88;;;7.50;;
27225;SDS011;14732;51.074;3.788;2024-02-14T08:18:39;15.07;;;6.90;;
27225;SDS011;14732;51.074;3.788;2024-02-14T08:21:05;12.73;;;7.68;;
27225;SDS011;14732;51.074;3.788;2024-02-14T08:23:31;14.52;;;8.30;;
27225;SDS011;14732;51.074;3.788;2024-02-14T08:25:57;15.38;;;7.70;;
27225;SDS011;14732;51.074;3.788;2024-02-14T08:28:23;16.40;;;7.95;;
27225;SDS011;14732;51.074;3.788;2024-02-14T08:30:48;13.77;;;7.22;;
27225;SDS011;14732;51.074;3.788;2024-02-14T08:33:14;14.88;;;7.43;;
27225;SDS011;14732;51.074;3.788;2024-02-14T08:35:40;14.80;;;7.82;;
27225;SDS011;14732;51.074;3.788;2024-02-14T08:38:05;13.68;;;7.60;;
27225;SDS011;14732;51.074;3.788;2024-02-14T08:40:31;15.60;;;7.68;;
27225;SDS011;14732;51.074;3.788;2024-02-14T08:42:57;16.98;;;7.53;;
27225;SDS011;14732;51.074;3.788;2024-02-14T08:45:24;13.05;;;7.30;;
27225;SDS011;14732;51.074;3.788;2024-02-14T08:47:50;9.77;;;6.65;;
27225;SDS011;14732;51.074;3.788;2024-02-14T08:50:16;12.65;;;6.90;;
27225;SDS011;14732;51.074;3.788;2024-02-14T08:52:42;11.18;;;7.00;;
27225;SDS011;14732;51.074;3.788;2024-02-14T08:55:08;14.27;;;6.93;;
27225;SDS011;14732;51.074;3.788;2024-02-14T08:57:39;11.48;;;7.07;;
27225;SDS011;14732;51.074;3.788;2024-02-14T09:00:06;8.27;;;6.00;;
27225;SDS011;14732;51.074;3.788;2024-02-14T09:02:32;18.25;;;7.00;;
27225;SDS011;14732;51.074;3.788;2024-02-14T09:04:59;13.13;;;7.07;;
27225;SDS011;14732;51.074;3.788;2024-02-14T09:07:26;15.57;;;6.90;;
27225;SDS011;14732;51.074;3.788;2024-02-14T09:09:52;12.20;;;6.80;;
27225;SDS011;14732;51.074;3.788;2024-02-14T09:12:17;8.43;;;6.13;;
27225;SDS011;14732;51.074;3.788;2024-02-14T09:14:43;11.55;;;6.57;;
27225;SDS011;14732;51.074;3.788;2024-02-14T09:17:08;14.02;;;6.95;;
27225;SDS011;14732;51.074;3.788;2024-02-14T09:19:35;12.35;;;6.57;;
27225;SDS011;14732;51.074;3.788;2024-02-14T09:22:01;12.93;;;6.88;;
27225;SDS011;14732;51.074;3.788;2024-02-14T09:24:31;9.68;;;6.70;;
27225;SDS011;14732;51.074;3.788;2024-02-14T09:26:57;13.50;;;7.00;;
27225;SDS011;14732;51.074;3.788;2024-02-14T09:29:23;9.80;;;6.38;;
27225;SDS011;14732;51.074;3.788;2024-02-14T09:31:50;9.88;;;6.40;;
27225;SDS011;14732;51.074;3.788;2024-02-14T09:34:16;8.88;;;5.90;;
27225;SDS011;14732;51.074;3.788;2024-02-14T09:36:44;10.18;;;6.07;;
27225;SDS011;14732;51.074;3.788;2024-02-14T09:39:10;10.30;;;6.43;;
27225;SDS011;14732;51.074;3.788;2024-02-14T09:44:02;8.50;;;5.80;;
27225;SDS011;14732;51.074;3.788;2024-02-14T09:46:28;9.25;;;5.70;;
27225;SDS011;14732;51.074;3.788;2024-02-14T09:48:56;6.85;;;5.35;;
27225;SDS011;14732;51.074;3.788;2024-02-14T09:51:26;12.02;;;6.05;;
27225;SDS011;14732;51.074;3.788;2024-02-14T09:53:54;11.85;;;5.95;;
27225;SDS011;14732;51.074;3.788;2024-02-14T09:56:20;9.57;;;5.45;;
27225;SDS011;14732;51.074;3.788;2024-02-14T09:58:49;11.13;;;5.72;;
27225;SDS011;14732;51.074;3.788;2024-02-14T10:01:21;8.35;;;5.60;;
27225;SDS011;14732;51.074;3.788;2024-02-14T10:03:50;7.05;;;5.10;;
27225;SDS011;14732;51.074;3.788;2024-02-14T10:06:19;9.18;;;5.13;;
27225;SDS011;14732;51.074;3.788;2024-02-14T10:08:48;9.18;;;5.35;;
27225;SDS011;14732;51.074;3.788;2024-02-14T10:11:16;5.82;;;4.43;;
27225;SDS011;14732;51.074;3.788;2024-02-14T10:13:45;8.45;;;5.63;;
27225;SDS011;14732;51.074;3.788;2024-02-14T10:16:12;8.23;;;5.35;;
27225;SDS011;14732;51.074;3.788;2024-02-14T10:18:39;9.75;;;5.35;;
27225;SDS011;14732;51.074;3.788;2024-02-14T10:21:05;8.55;;;4.97;;
27225;SDS011;14732;51.074;3.788;2024-02-14T10:23:30;8.98;;;5.72;;
27225;SDS011;14732;51.074;3.788;2024-02-14T10:25:57;10.38;;;5.47;;
27225;SDS011;14732;51.074;3.788;2024-02-14T10:28:24;9.85;;;5.60;;
27225;SDS011;14732;51.074;3.788;2024-02-14T10:30:50;8.68;;;5.93;;
27225;SDS011;14732;51.074;3.788;2024-02-14T10:33:16;8.63;;;5.93;;
27225;SDS011;14732;51.074;3.788;2024-02-14T10:35:42;11.48;;;5.60;;
27225;SDS011;14732;51.074;3.788;2024-02-14T10:38:08;9.50;;;6.10;;
27225;SDS011;14732;51.074;3.788;2024-02-14T10:40:35;8.63;;;5.82;;
27225;SDS011;14732;51.074;3.788;2024-02-14T10:43:03;9.57;;;5.38;;
27225;SDS011;14732;51.074;3.788;2024-02-14T10:45:34;11.75;;;6.05;;
27225;SDS011;14732;51.074;3.788;2024-02-14T10:48:01;8.38;;;6.03;;
27225;SDS011;14732;51.074;3.788;2024-02-14T10:50:33;11.07;;;5.72;;
27225;SDS011;14732;51.074;3.788;2024-02-14T10:53:05;9.57;;;5.63;;
27225;SDS011;14732;51.074;3.788;2024-02-14T10:55:35;7.60;;;5.95;;
27225;SDS011;14732;51.074;3.788;2024-02-14T10:58:03;10.57;;;6.65;;
27225;SDS011;14732;51.074;3.788;2024-02-14T11:00:29;10.93;;;6.55;;
27225;SDS011;14732;51.074;3.788;2024-02-14T11:02:57;10.88;;;6.78;;
27225;SDS011;14732;51.074;3.788;2024-02-14T11:05:23;12.43;;;6.50;;
27225;SDS011;14732;51.074;3.788;2024-02-14T11:07:50;14.00;;;6.72;;
27225;SDS011;14732;51.074;3.788;2024-02-14T11:10:18;8.57;;;6.28;;
27225;SDS011;14732;51.074;3.788;2024-02-14T11:12:46;11.05;;;7.10;;
27225;SDS011;14732;51.074;3.788;2024-02-14T11:15:18;8.52;;;6.30;;
27225;SDS011;14732;51.074;3.788;2024-02-14T11:17:45;9.00;;;6.68;;
27225;SDS011;14732;51.074;3.788;2024-02-14T11:23:02;12.80;;;6.93;;
27225;SDS011;14732;51.074;3.788;2024-02-14T11:25:36;8.48;;;6.82;;
27225;SDS011;14732;51.074;3.788;2024-02-14T11:30:41;8.80;;;6.45;;
27225;SDS011;14732;51.074;3.788;2024-02-14T11:33:20;10.00;;;6.28;;
27225;SDS011;14732;51.074;3.788;2024-02-14T11:35:50;10.32;;;6.63;;
27225;SDS011;14732;51.074;3.788;2024-02-14T11:38:18;12.23;;;6.80;;
27225;SDS011;14732;51.074;3.788;2024-02-14T11:40:48;10.65;;;6.18;;
27225;SDS011;14732;51.074;3.788;2024-02-14T11:43:15;9.43;;;5.97;;
27225;SDS011;14732;51.074;3.788;2024-02-14T11:45:48;12.80;;;6.00;;
27225;SDS011;14732;51.074;3.788;2024-02-14T11:48:20;8.93;;;5.43;;
27225;SDS011;14732;51.074;3.788;2024-02-14T11:50:48;9.93;;;5.47;;
27225;SDS011;14732;51.074;3.788;2024-02-14T11:53:14;11.10;;;6.25;;
27225;SDS011;14732;51.074;3.788;2024-02-14T11:58:12;15.23;;;5.07;;
27225;SDS011;14732;51.074;3.788;2024-02-14T12:00:39;9.13;;;5.20;;
27225;SDS011;14732;51.074;3.788;2024-02-14T12:03:10;7.60;;;4.95;;
27225;SDS011;14732;51.074;3.788;2024-02-14T12:05:52;7.85;;;5.25;;
27225;SDS011;14732;51.074;3.788;2024-02-14T12:08:18;10.15;;;4.68;;
27225;SDS011;14732;51.074;3.788;2024-02-14T12:10:45;7.82;;;5.20;;
27225;SDS011;14732;51.074;3.788;2024-02-14T12:13:13;9.98;;;4.82;;
27225;SDS011;14732;51.074;3.788;2024-02-14T12:15:41;10.00;;;5.00;;
27225;SDS011;14732;51.074;3.788;2024-02-14T12:18:09;10.25;;;4.65;;
27225;SDS011;14732;51.074;3.788;2024-02-14T12:20:38;7.65;;;4.45;;
27225;SDS011;14732;51.074;3.788;2024-02-14T12:23:04;7.18;;;4.78;;
27225;SDS011;14732;51.074;3.788;2024-02-14T12:25:30;7.60;;;4.60;;
27225;SDS011;14732;51.074;3.788;2024-02-14T12:27:57;9.18;;;4.65;;
27225;SDS011;14732;51.074;3.788;2024-02-14T12:30:26;13.68;;;4.50;;
27225;SDS011;14732;51.074;3.788;2024-02-14T12:33:22;7.93;;;4.50;;
27225;SDS011;14732;51.074;3.788;2024-02-14T12:35:49;8.85;;;4.40;;
27225;SDS011;14732;51.074;3.788;2024-02-14T12:38:16;9.38;;;4.28;;
27225;SDS011;14732;51.074;3.788;2024-02-14T12:40:43;9.90;;;4.28;;
27225;SDS011;14732;51.074;3.788;2024-02-14T12:43:09;7.68;;;4.13;;
27225;SDS011;14732;51.074;3.788;2024-02-14T12:45:39;4.95;;;4.10;;
27225;SDS011;14732;51.074;3.788;2024-02-14T12:48:08;9.63;;;3.73;;
27225;SDS011;14732;51.074;3.788;2024-02-14T12:50:35;7.65;;;4.18;;
27225;SDS011;14732;51.074;3.788;2024-02-14T12:53:04;6.07;;;3.78;;
27225;SDS011;14732;51.074;3.788;2024-02-14T12:55:31;7.07;;;3.85;;
27225;SDS011;14732;51.074;3.788;2024-02-14T12:57:57;8.52;;;3.58;;
27225;SDS011;14732;51.074;3.788;2024-02-14T13:00:23;7.07;;;3.90;;
27225;SDS011;14732;51.074;3.788;2024-02-14T13:02:49;5.90;;;3.60;;
27225;SDS011;14732;51.074;3.788;2024-02-14T13:05:15;6.78;;;3.60;;
27225;SDS011;14732;51.074;3.788;2024-02-14T13:07:41;7.38;;;3.60;;
27225;SDS011;14732;51.074;3.788;2024-02-14T13:10:08;8.73;;;3.47;;
27225;SDS011;14732;51.074;3.788;2024-02-14T13:12:39;11.53;;;4.00;;
27225;SDS011;14732;51.074;3.788;2024-02-14T13:15:05;6.15;;;3.70;;
27225;SDS011;14732;51.074;3.788;2024-02-14T13:17:32;8.45;;;3.53;;
27225;SDS011;14732;51.074;3.788;2024-02-14T13:19:57;4.95;;;3.70;;
27225;SDS011;14732;51.074;3.788;2024-02-14T13:22:24;5.97;;;3.50;;
27225;SDS011;14732;51.074;3.788;2024-02-14T13:24:50;5.40;;;3.45;;
27225;SDS011;14732;51.074;3.788;2024-02-14T13:27:16;7.38;;;3.50;;
27225;SDS011;14732;51.074;3.788;2024-02-14T13:29:42;6.90;;;3.53;;
27225;SDS011;14732;51.074;3.788;2024-02-14T13:32:08;8.82;;;4.07;;
27225;SDS011;14732;51.074;3.788;2024-02-14T13:34:34;7.22;;;3.33;;
27225;SDS011;14732;51.074;3.788;2024-02-14T13:37:00;6.35;;;3.50;;
27225;SDS011;14732;51.074;3.788;2024-02-14T13:39:27;5.93;;;3.25;;
27225;SDS011;14732;51.074;3.788;2024-02-14T13:41:53;6.05;;;3.55;;
27225;SDS011;14732;51.074;3.788;2024-02-14T13:44:19;6.80;;;3.72;;
27225;SDS011;14732;51.074;3.788;2024-02-14T13:46:45;7.90;;;3.78;;
27225;SDS011;14732;51.074;3.788;2024-02-14T13:49:11;7.40;;;3.58;;
27225;SDS011;14732;51.074;3.788;2024-02-14T13:54:06;7.70;;;3.75;;
27225;SDS011;14732;51.074;3.788;2024-02-14T13:56:34;7.05;;;3.60;;
27225;SDS011;14732;51.074;3.788;2024-02-14T13:58:59;8.07;;;3.70;;
27225;SDS011;14732;51.074;3.788;2024-02-14T14:01:25;5.68;;;3.95;;
27225;SDS011;14732;51.074;3.788;2024-02-14T14:03:51;5.63;;;3.72;;
27225;SDS011;14732;51.074;3.788;2024-02-14T14:06:19;5.90;;;3.92;;
27225;SDS011;14732;51.074;3.788;2024-02-14T14:08:45;6.70;;;3.67;;
27225;SDS011;14732;51.074;3.788;2024-02-14T14:11:11;8.10;;;3.90;;
27225;SDS011;14732;51.074;3.788;2024-02-14T14:13:37;8.10;;;3.65;;
27225;SDS011;14732;51.074;3.788;2024-02-14T14:16:03;7.45;;;3.90;;
27225;SDS011;14732;51.074;3.788;2024-02-14T14:18:30;5.32;;;3.55;;
27225;SDS011;14732;51.074;3.788;2024-02-14T14:20:56;8.52;;;3.60;;
27225;SDS011;14732;51.074;3.788;2024-02-14T14:23:21;6.75;;;3.90;;
27225;SDS011;14732;51.074;3.788;2024-02-14T14:25:47;6.60;;;3.47;;
27225;SDS011;14732;51.074;3.788;2024-02-14T14:28:12;8.57;;;3.70;;
27225;SDS011;14732;51.074;3.788;2024-02-14T14:30:39;9.07;;;3.33;;
27225;SDS011;14732;51.074;3.788;2024-02-14T14:33:05;4.88;;;3.45;;
27225;SDS011;14732;51.074;3.788;2024-02-14T14:35:32;7.55;;;3.42;;
27225;SDS011;14732;51.074;3.788;2024-02-14T14:37:58;10.93;;;4.13;;
27225;SDS011;14732;51.074;3.788;2024-02-14T14:40:24;7.25;;;3.92;;
27225;SDS011;14732;51.074;3.788;2024-02-14T14:42:51;9.27;;;3.80;;
27225;SDS011;14732;51.074;3.788;2024-02-14T14:45:17;5.47;;;3.15;;
27225;SDS011;14732;51.074;3.788;2024-02-14T14:47:43;7.78;;;3.28;;
27225;SDS011;14732;51.074;3.788;2024-02-14T14:50:09;8.82;;;3.70;;
27225;SDS011;14732;51.074;3.788;2024-02-14T14:52:35;5.43;;;3.30;;
27225;SDS011;14732;51.074;3.788;2024-02-14T14:55:03;5.05;;;3.17;;
27225;SDS011;14732;51.074;3.788;2024-02-14T14:57:29;6.95;;;3.72;;
27225;SDS011;14732;51.074;3.788;2024-02-14T14:59:55;9.43;;;3.88;;
27225;SDS011;14732;51.074;3.788;2024-02-14T15:02:20;6.57;;;3.63;;
27225;SDS011;14732;51.074;3.788;2024-02-14T15:04:47;10.52;;;4.22;;
27225;SDS011;14732;51.074;3.788;2024-02-14T15:07:13;8.75;;;4.10;;
27225;SDS011;14732;51.074;3.788;2024-02-14T15:09:39;8.85;;;3.72;;
27225;SDS011;14732;51.074;3.788;2024-02-14T15:12:04;6.82;;;3.72;;
27225;SDS011;14732;51.074;3.788;2024-02-14T15:14:30;9.88;;;4.10;;
27225;SDS011;14732;51.074;3.788;2024-02-14T15:16:56;8.75;;;3.92;;
27225;SDS011;14732;51.074;3.788;2024-02-14T15:19:22;7.57;;;3.45;;
27225;SDS011;14732;51.074;3.788;2024-02-14T15:21:49;10.20;;;3.60;;
27225;SDS011;14732;51.074;3.788;2024-02-14T15:24:15;10.07;;;3.70;;